Warroad, MN

12:08 PM CST on November 20, 2017 (GMT -0600)
Warroad International-Carlson

Weather History for KRRT - October, 2012

Change the Weather History Date:

Tuesday, October 16, 2012

  Actual Average Record
Temperature  
Mean Temperature 50 °F -  
Max Temperature 62 °F 49 °F 82 °F (1953)
Min Temperature 37 °F 31 °F 8 °F (1952)
Degree Days  
Heating Degree Days 16    
Moisture  
Dew Point 43 °F    
Average Humidity 76    
Maximum Humidity 87    
Minimum Humidity 59    
Precipitation  
Precipitation 0.00 in - - ()
Sea Level Pressure  
Sea Level Pressure 29.43 in    
Wind  
Wind Speed 3 mph (ESE)    
Max Wind Speed 10 mph    
Max Gust Speed -    
Visibility 10 miles    
Events      
Averages and records for this station are not official NWS values.
T = Trace of Precipitation, MM = Missing Value Source: NWS Daily Summary

Daily Weather History Graph

Daily Weather History Graph

Search for Another Location

Airport or City:

Trip Planner

Search our weather history database for the weather conditions in past years. The results will help you decide how hot, cold, wet, or windy it might be!

Date:

Astronomy

Oct. 16, 2012 Rise Set
Actual Time 7:44 AM CDT 6:28 PM CDT
Civil Twilight 7:12 AM CDT 7:00 PM CDT
Nautical Twilight 6:35 AM CDT 7:37 PM CDT
Astronomical Twilight 5:58 AM CDT 8:13 PM CDT
Moon 9:19 AM CDT (10/16) 7:00 PM CDT (10/16)
Length of Visible Light 11h 48m
Length of Day
10h 44m
New Moon, 2% of the Moon is Illuminated
Oct 16
New Moon
Oct 21
First Quarter
Oct 29
Full
Nov 6
Last Quarter
Nov 13
New

Hourly Weather History & Observations

Time (CDT) Temp. Windchill Dew Point Humidity Pressure Visibility Wind Dir Wind Speed Gust Speed Precip Events Conditions
12:14 AM 48.2 °F - 39.2 °F 71% 29.53 in 10.0 mi South 6.9 mph - N/A   Clear
12:34 AM 48.2 °F - 39.2 °F 71% 29.53 in 10.0 mi South 5.8 mph - N/A   Clear
12:54 AM 48.2 °F - 39.2 °F 71% 29.53 in 10.0 mi South 4.6 mph - N/A   Clear
1:14 AM 48.2 °F - 39.2 °F 71% 29.53 in 10.0 mi Calm Calm - N/A   Clear
1:34 AM 48.2 °F - 39.2 °F 71% 29.52 in 10.0 mi Calm Calm - N/A   Clear
1:54 AM 48.2 °F - 39.2 °F 71% 29.52 in 10.0 mi SSW 3.5 mph - N/A   Clear
2:14 AM 48.2 °F - 39.2 °F 71% 29.51 in 10.0 mi South 4.6 mph - N/A   Clear
2:34 AM 48.2 °F - 39.2 °F 71% 29.50 in 10.0 mi Calm Calm - N/A   Clear
2:54 AM 48.2 °F - 39.2 °F 71% 29.50 in 10.0 mi Calm Calm - N/A   Clear
3:14 AM 48.2 °F - 39.2 °F 71% 29.50 in 10.0 mi Calm Calm - N/A   Clear
3:34 AM 48.2 °F - 39.2 °F 71% 29.50 in 10.0 mi WSW 3.5 mph - N/A   Clear
3:54 AM 48.2 °F - 39.2 °F 71% 29.50 in 10.0 mi Calm Calm - N/A   Clear
4:14 AM 46.4 °F - 39.2 °F 76% 29.49 in 10.0 mi Calm Calm - N/A   Clear
4:34 AM 42.8 °F - 37.4 °F 81% 29.49 in 10.0 mi Calm Calm - N/A   Clear
4:54 AM 42.8 °F - 37.4 °F 81% 29.49 in 10.0 mi Calm Calm - N/A   Clear
5:34 AM 39.2 °F 37.0 °F 35.6 °F 87% 29.48 in 10.0 mi South 3.5 mph - N/A   Clear
5:54 AM 37.4 °F 34.9 °F 33.8 °F 87% 29.49 in 10.0 mi SW 3.5 mph - N/A   Clear
6:14 AM 37.4 °F 33.8 °F 33.8 °F 87% 29.48 in 10.0 mi SW 4.6 mph - N/A   Clear
6:34 AM 39.2 °F 37.0 °F 35.6 °F 87% 29.49 in 10.0 mi WSW 3.5 mph - N/A   Clear
7:14 AM 39.2 °F 35.9 °F 35.6 °F 87% 29.50 in 10.0 mi West 4.6 mph - N/A   Clear
7:34 AM 39.2 °F 35.9 °F 35.6 °F 87% 29.50 in 10.0 mi West 4.6 mph - N/A   Clear
7:54 AM 37.4 °F - 33.8 °F 87% 29.50 in 10.0 mi Calm Calm - N/A   Clear
8:14 AM 37.4 °F 33.8 °F 33.8 °F 87% 29.50 in 10.0 mi WSW 4.6 mph - N/A   Clear
8:34 AM 39.2 °F - 35.6 °F 87% 29.50 in 10.0 mi Calm Calm - N/A   Clear
8:54 AM 42.8 °F - 37.4 °F 81% 29.50 in 10.0 mi Calm Calm - N/A   Clear
9:14 AM 46.4 °F - 41.0 °F 81% 29.50 in 10.0 mi Calm Calm - N/A   Clear
9:34 AM 46.4 °F - 42.8 °F 87% 29.49 in 10.0 mi Calm Calm - N/A   Clear
9:54 AM 48.2 °F - 42.8 °F 82% 29.50 in 10.0 mi WNW 3.5 mph - N/A   Clear
10:14 AM 50.0 °F - 42.8 °F 76% 29.49 in 10.0 mi Calm Calm - N/A   Clear
10:34 AM 51.8 °F - 44.6 °F 76% 29.49 in 10.0 mi Calm Calm - N/A   Clear
10:54 AM 53.6 °F - 46.4 °F 77% 29.49 in 10.0 mi Calm Calm - N/A   Clear
11:14 AM 55.4 °F - 46.4 °F 72% 29.48 in 10.0 mi Calm Calm - N/A   Clear
11:34 AM 57.2 °F - 46.4 °F 67% 29.47 in 10.0 mi Calm Calm - N/A   Clear
11:54 AM 59.0 °F - 48.2 °F 67% 29.47 in 7.0 mi Calm Calm - N/A   Clear
12:14 PM 60.8 °F - 48.2 °F 63% 29.46 in 10.0 mi East 3.5 mph - N/A   Clear
12:34 PM 59.0 °F - 48.2 °F 67% 29.46 in 10.0 mi East 4.6 mph - N/A   Clear
12:54 PM 59.0 °F - 48.2 °F 67% 29.45 in 10.0 mi East 4.6 mph - N/A   Clear
1:14 PM 60.8 °F - 48.2 °F 63% 29.44 in 10.0 mi East 4.6 mph - N/A   Clear
1:34 PM 60.8 °F - 48.2 °F 63% 29.43 in 10.0 mi East 5.8 mph - N/A   Clear
1:54 PM 62.6 °F - 48.2 °F 59% 29.43 in 10.0 mi East 5.8 mph - N/A   Clear
2:14 PM 60.8 °F - 48.2 °F 63% 29.42 in 10.0 mi East 6.9 mph - N/A   Clear
2:33 PM 60.8 °F - 48.2 °F 63% 29.41 in 10.0 mi ENE 4.6 mph - N/A   Clear
2:54 PM 59.0 °F - 48.2 °F 67% 29.41 in 10.0 mi ENE 4.6 mph - N/A   Clear
3:14 PM 57.2 °F - 48.2 °F 72% 29.40 in 10.0 mi ENE 5.8 mph - N/A   Clear
3:33 PM 55.4 °F - 46.4 °F 72% 29.40 in 10.0 mi ENE 3.5 mph - N/A   Clear
3:54 PM 55.4 °F - 46.4 °F 72% 29.40 in 10.0 mi Calm Calm - N/A   Clear
4:14 PM 57.2 °F - 48.2 °F 72% 29.39 in 10.0 mi ENE 4.6 mph - N/A   Clear
4:34 PM 57.2 °F - 46.4 °F 67% 29.39 in 10.0 mi ENE 4.6 mph - N/A   Clear
4:54 PM 55.4 °F - 46.4 °F 72% 29.38 in 10.0 mi Calm Calm - N/A   Clear
5:14 PM 53.6 °F - 46.4 °F 77% 29.38 in 10.0 mi Calm Calm - N/A   Clear
5:34 PM 53.6 °F - 46.4 °F 77% 29.38 in 10.0 mi ENE 3.5 mph - N/A   Clear
5:54 PM 53.6 °F - 46.4 °F 77% 29.37 in 10.0 mi East 4.6 mph - N/A   Clear
6:14 PM 51.8 °F - 46.4 °F 82% 29.37 in 10.0 mi East 5.8 mph - N/A   Clear
6:34 PM 51.8 °F - 46.4 °F 82% 29.37 in 10.0 mi East 8.1 mph - N/A   Clear
6:54 PM 53.6 °F - 46.4 °F 77% 29.36 in 10.0 mi ESE 9.2 mph - N/A   Clear
7:14 PM 53.6 °F - 46.4 °F 77% 29.35 in 10.0 mi ESE 9.2 mph - N/A   Clear
7:34 PM 53.6 °F - 46.4 °F 77% 29.34 in 10.0 mi ESE 10.4 mph - N/A   Clear
7:54 PM 53.6 °F - 44.6 °F 72% 29.35 in 10.0 mi SE 8.1 mph - N/A   Clear
8:14 PM 53.6 °F - 44.6 °F 72% 29.34 in 10.0 mi ESE 6.9 mph - N/A   Clear
8:34 PM 50.0 °F - 44.6 °F 82% 29.34 in 10.0 mi East 5.8 mph - N/A   Clear
8:54 PM 48.2 °F - 44.6 °F 87% 29.33 in 10.0 mi East 6.9 mph - N/A   Clear
9:14 PM 48.2 °F - 44.6 °F 87% 29.33 in 10.0 mi ESE 4.6 mph - N/A   Clear
9:34 PM 48.2 °F - 44.6 °F 87% 29.32 in 10.0 mi ESE 5.8 mph - N/A   Clear
9:54 PM 48.2 °F - 44.6 °F 87% 29.32 in 10.0 mi ESE 5.8 mph - N/A   Clear
10:34 PM 48.2 °F - 44.6 °F 87% 29.31 in 10.0 mi ESE 3.5 mph - N/A   Clear
10:54 PM 48.2 °F - 42.8 °F 82% 29.30 in 10.0 mi ESE 3.5 mph - N/A   Clear
11:14 PM 48.2 °F - 42.8 °F 82% 29.30 in 10.0 mi ESE 3.5 mph - N/A   Clear
11:34 PM 48.2 °F - 42.8 °F 82% 29.30 in 10.0 mi Calm Calm - N/A   Clear
11:54 PM 48.2 °F - 42.8 °F 82% 29.29 in 10.0 mi Calm Calm - N/A   Clear